.
WxDataArchive / Data Records for 2013-11-13
2013-11-12 November 2013 2013-11-14

Data Records for Wednesday, 13 November 2013

Time	Temp	Chill	HIndex	Humid	Dewpt	 Wind 	HiWind	WindDir	Rain 	Barom 
-----	----	-----	------	-----	-----	------	------	-------	-----	----- 
00:00	25.4	25.4	25.4	69	16.7	0	2	292	0.00	30.586 
00:05	25.4	25.4	25.4	69	16.7	0	1	292	0.00	30.586 
00:10	25.3	25.3	25.3	70	16.9	0	2	292	0.00	30.586 
00:15	25.3	25.3	25.3	70	16.9	0	2	292	0.00	30.586 
00:20	25.1	25.1	25.1	70	16.7	0	1	292	0.00	30.586 
00:25	25.1	25.1	25.1	70	16.7	0	2	292	0.00	30.586 
00:30	25.0	25.0	25.0	71	16.9	0	1	292	0.00	30.585 
00:35	24.8	24.8	24.8	71	16.8	0	1	292	0.00	30.585 
00:40	24.7	24.7	24.7	72	17.0	0	2	292	0.00	30.585 
00:45	24.7	24.7	24.7	72	17.0	0	2	292	0.00	30.589 
00:50	24.7	24.7	24.7	72	17.0	0	2	292	0.00	30.589 
00:55	24.5	24.5	24.5	73	17.1	0	2	292	0.00	30.589 
01:00	24.5	24.5	24.5	73	17.1	0	1	292	0.00	30.592 
01:05	24.4	24.4	24.4	73	17.0	0	3	292	0.00	30.592 
01:10	24.4	24.4	24.4	73	17.0	1	3	270	0.00	30.592 
01:15	24.4	24.4	24.4	73	17.0	0	2	270	0.00	30.595 
01:20	24.4	24.4	24.4	74	17.3	0	1	270	0.00	30.595 
01:25	24.2	24.2	24.2	74	17.1	0	1	270	0.00	30.595 
01:30	24.2	24.2	24.2	74	17.1	0	2	270	0.00	30.591 
01:35	24.1	24.1	24.1	74	17.0	0	3	270	0.00	30.591 
01:40	24.1	24.1	24.1	74	17.0	0	1	270	0.00	30.591 
01:45	23.9	23.9	23.9	74	16.8	0	1	270	0.00	30.587 
01:50	23.9	23.9	23.9	75	17.2	0	1	270	0.00	30.587 
01:55	23.8	23.8	23.8	75	17.1	0	1	270	0.00	30.587 
02:00	23.6	23.6	23.6	75	16.9	0	1	270	0.00	30.586 
02:05	23.6	23.6	23.6	75	16.9	0	1	270	0.00	30.586 
02:10	23.5	23.5	23.5	75	16.8	0	1	270	0.00	30.586 
02:15	23.5	23.5	23.5	76	17.1	0	2	270	0.00	30.582 
02:20	23.5	23.5	23.5	76	17.1	0	1	270	0.00	30.582 
02:25	23.5	23.5	23.5	76	17.1	0	2	270	0.00	30.582 
02:30	23.5	23.5	23.5	76	17.1	0	1	270	0.00	30.582 
02:35	23.3	23.3	23.3	76	16.9	0	2	270	0.00	30.582 
02:40	23.3	23.3	23.3	76	16.9	0	1	270	0.00	30.582 
02:45	23.2	23.2	23.2	77	17.1	0	1	270	0.00	30.582 
02:50	23.2	23.2	23.2	77	17.1	0	1	270	0.00	30.582 
02:55	23.0	23.0	23.0	77	16.9	0	1	270	0.00	30.582 
03:00	23.0	23.0	23.0	77	16.9	0	2	270	0.00	30.583 
03:05	23.0	23.0	23.0	77	16.9	0	1	270	0.00	30.583 
03:10	22.9	22.9	22.9	77	16.8	0	1	270	0.00	30.583 
03:15	22.9	22.9	22.9	77	16.8	0	1	270	0.00	30.583 
03:20	22.9	22.9	22.9	77	16.8	0	1	270	0.00	30.583 
03:25	22.9	22.9	22.9	77	16.8	0	1	270	0.00	30.583 
03:30	22.9	22.9	22.9	77	16.8	0	0	---	0.00	30.581 
03:35	22.7	22.7	22.7	77	16.6	0	1	270	0.00	30.581 
03:40	22.7	22.7	22.7	77	16.6	0	1	270	0.00	30.581 
03:45	22.7	22.7	22.7	77	16.6	0	1	270	0.00	30.579 
03:50	22.5	22.5	22.5	77	16.4	0	1	270	0.00	30.579 
03:55	22.5	22.5	22.5	77	16.4	0	1	270	0.00	30.579 
04:00	22.4	22.4	22.4	77	16.3	0	1	270	0.00	30.582 
04:05	22.4	22.4	22.4	77	16.3	0	0	---	0.00	30.582 
04:10	22.2	22.2	22.2	77	16.1	0	1	270	0.00	30.582 
04:15	22.2	22.2	22.2	77	16.1	0	1	270	0.00	30.585 
04:20	22.1	22.1	22.1	77	16.0	0	1	270	0.00	30.585 
04:25	22.1	22.1	22.1	78	16.3	0	1	270	0.00	30.585 
04:30	22.1	22.1	22.1	78	16.3	0	0	---	0.00	30.585 
04:35	21.9	21.9	21.9	78	16.1	0	0	---	0.00	30.585 
04:40	21.9	21.9	21.9	78	16.1	0	1	270	0.00	30.585 
04:45	21.9	21.9	21.9	78	16.1	0	0	---	0.00	30.587 
04:50	21.8	21.8	21.8	78	16.0	0	1	270	0.00	30.587 
04:55	21.8	21.8	21.8	78	16.0	0	1	270	0.00	30.587 
05:00	21.6	21.6	21.6	78	15.8	0	0	---	0.00	30.589 
05:05	21.6	21.6	21.6	78	15.8	0	0	---	0.00	30.589 
05:10	21.4	21.4	21.4	79	15.9	0	1	270	0.00	30.589 
05:15	21.4	21.4	21.4	79	15.9	0	2	270	0.00	30.590 
05:20	21.4	21.4	21.4	79	15.9	0	1	270	0.00	30.590 
05:25	21.4	21.4	21.4	79	15.9	0	1	270	0.00	30.590 
05:30	21.4	21.4	21.4	80	16.2	0	1	270	0.00	30.587 
05:35	21.4	21.4	21.4	80	16.2	0	1	270	0.00	30.587 
05:40	21.4	21.4	21.4	80	16.2	0	1	270	0.00	30.587 
05:45	21.3	21.3	21.3	80	16.1	0	1	270	0.00	30.578 
05:50	21.3	21.3	21.3	80	16.1	0	1	270	0.00	30.578 
05:55	21.1	21.1	21.1	80	15.9	0	1	270	0.00	30.578 
06:00	21.1	21.1	21.1	80	15.9	0	1	270	0.00	30.580 
06:05	21.1	21.1	21.1	81	16.2	0	1	270	0.00	30.580 
06:10	21.1	21.1	21.1	81	16.2	0	1	270	0.00	30.580 
06:15	21.1	21.1	21.1	81	16.2	0	1	270	0.00	30.587 
06:20	21.0	21.0	21.0	81	16.1	0	1	270	0.00	30.587 
06:25	21.0	21.0	21.0	81	16.1	0	1	270	0.00	30.587 
06:30	21.0	21.0	21.0	81	16.1	0	1	270	0.00	30.588 
06:35	20.8	20.8	20.8	81	15.9	0	1	270	0.00	30.588 
06:40	20.8	20.8	20.8	81	15.9	0	1	270	0.00	30.588 
06:45	20.8	20.8	20.8	81	15.9	0	1	270	0.00	30.589 
06:50	20.8	20.8	20.8	81	15.9	0	1	270	0.00	30.589 
06:55	20.6	20.6	20.6	81	15.7	0	2	270	0.00	30.589 
07:00	20.6	20.6	20.6	81	15.7	0	3	270	0.00	30.586 
07:05	20.6	20.6	20.6	81	15.7	0	2	270	0.00	30.586 
07:10	20.6	20.6	20.6	81	15.7	0	2	270	0.00	30.586 
07:15	20.6	20.6	20.6	81	15.7	0	2	270	0.00	30.580 
07:20	20.6	20.6	20.6	81	15.7	0	1	270	0.00	30.580 
07:25	20.6	20.6	20.6	81	15.7	0	3	270	0.00	30.580 
07:30	20.5	20.5	20.5	81	15.6	0	1	270	0.00	30.576 
07:35	20.5	20.5	20.5	81	15.6	0	1	270	0.00	30.576 
07:40	20.5	20.5	20.5	81	15.6	0	2	270	0.00	30.576 
07:45	20.5	20.5	20.5	82	15.9	0	1	270	0.00	30.582 
07:50	20.5	20.5	20.5	82	15.9	0	1	270	0.00	30.582 
07:55	20.6	20.6	20.6	82	16.0	0	1	270	0.00	30.582 
08:00	20.8	20.8	20.8	82	16.2	0	2	270	0.00	30.585 
08:05	21.0	21.0	21.0	81	16.1	0	1	270	0.00	30.585 
08:10	21.3	21.3	21.3	81	16.4	0	3	270	0.00	30.585 
08:15	21.4	21.4	21.4	81	16.5	0	3	270	0.00	30.590 
08:20	21.8	21.8	21.8	80	16.6	0	3	270	0.00	30.590 
08:25	21.9	21.9	21.9	80	16.7	0	1	270	0.00	30.590 
08:30	22.1	22.1	22.1	79	16.6	0	2	270	0.00	30.584 
08:35	22.4	22.4	22.4	79	16.9	0	2	270	0.00	30.584 
08:40	22.4	22.4	22.4	78	16.6	0	3	270	0.00	30.584 
08:45	22.7	22.7	22.7	78	16.9	0	2	270	0.00	30.591 
08:50	22.9	22.9	22.9	77	16.8	1	3	270	0.00	30.591 
08:55	23.0	23.0	23.0	76	16.6	1	4	270	0.00	30.591 
09:00	23.5	23.5	23.5	75	16.8	0	2	270	0.00	30.589 
09:05	23.8	23.8	23.8	74	16.7	1	3	270	0.00	30.589 
09:10	24.1	24.1	24.1	72	16.4	1	3	270	0.00	30.589 
09:15	24.5	24.5	24.5	71	16.5	1	3	270	0.00	30.590 
09:20	24.8	24.8	24.8	70	16.4	0	4	270	0.00	30.590 
09:25	25.3	25.3	25.3	69	16.6	0	2	270	0.00	30.590 
09:30	25.6	25.6	25.6	67	16.2	1	3	270	0.00	30.586 
09:35	25.8	25.8	25.8	66	16.0	0	3	270	0.00	30.586 
09:40	26.1	26.1	26.1	65	16.0	1	3	270	0.00	30.586 
09:45	26.3	26.3	26.3	64	15.8	0	3	270	0.00	30.582 
09:50	26.6	26.6	26.6	64	16.1	0	3	270	0.00	30.582 
09:55	26.9	26.9	26.9	62	15.6	0	2	270	0.00	30.582 
10:00	27.0	27.0	27.0	61	15.4	1	3	270	0.00	30.581 
10:05	27.2	27.2	27.2	60	15.2	1	5	270	0.00	30.581 
10:10	27.3	27.3	27.3	59	14.9	1	6	248	0.00	30.581 
10:15	27.6	27.6	27.6	59	15.2	0	3	248	0.00	30.569 
10:20	27.9	27.9	27.9	57	14.7	1	4	248	0.00	30.569 
10:25	28.2	28.2	28.2	57	14.9	1	3	248	0.00	30.569 
10:30	28.5	28.5	28.5	57	15.2	1	3	248	0.00	30.569 
10:35	28.8	28.8	28.8	57	15.5	1	5	248	0.00	30.569 
10:40	29.0	29.0	29.0	56	15.3	1	5	270	0.00	30.569 
10:45	29.4	29.4	29.4	55	15.3	1	3	270	0.00	30.567 
10:50	29.7	29.7	29.7	55	15.5	1	3	248	0.00	30.567 
10:55	29.8	29.8	29.8	56	16.0	0	2	248	0.00	30.567 
11:00	30.1	30.1	30.1	56	16.3	1	4	248	0.00	30.559 
11:05	30.1	30.1	30.1	55	15.9	1	5	248	0.00	30.559 
11:10	30.4	30.4	30.4	56	16.6	1	3	248	0.00	30.559 
11:15	30.6	30.6	30.6	54	16.0	1	4	248	0.00	30.558 
11:20	30.6	30.6	30.6	54	16.0	1	5	248	0.00	30.558 
11:25	30.7	30.7	30.7	54	16.0	1	4	248	0.00	30.558 
11:30	31.0	31.0	31.0	53	15.9	1	3	248	0.00	30.550 
11:35	31.2	31.2	31.2	52	15.6	1	5	248	0.00	30.550 
11:40	31.5	31.5	31.5	53	16.4	1	3	248	0.00	30.550 
11:45	31.8	31.8	31.8	50	15.3	2	5	248	0.00	30.538 
11:50	31.8	31.8	31.8	50	15.3	1	5	248	0.00	30.538 
11:55	32.1	32.1	32.1	52	16.5	1	4	248	0.00	30.538 
12:00	32.4	32.4	32.4	50	15.9	1	7	248	0.00	30.536 
12:05	32.7	32.7	32.7	49	15.7	1	4	270	0.00	30.536 
12:10	32.8	32.8	32.8	49	15.8	1	5	248	0.00	30.536 
12:15	32.8	32.8	32.8	47	14.8	1	5	248	0.00	30.530 
12:20	32.9	32.9	32.9	46	14.4	2	6	248	0.00	30.530 
12:25	33.4	33.4	33.4	45	14.4	2	5	270	0.00	30.530 
12:30	33.8	33.8	33.8	44	14.2	1	4	270	0.00	30.520 
12:35	34.1	34.1	34.1	45	15.0	1	4	248	0.00	30.520 
12:40	34.3	34.3	34.3	43	14.2	1	6	248	0.00	30.520 
12:45	34.4	34.4	34.4	44	14.8	1	4	248	0.00	30.509 
12:50	34.4	34.4	34.4	42	13.7	2	6	248	0.00	30.509 
12:55	34.4	34.4	34.4	40	12.6	3	6	248	0.00	30.509 
13:00	34.6	34.6	34.6	40	12.8	2	6	248	0.00	30.498 
13:05	34.9	34.9	34.9	41	13.6	1	6	248	0.00	30.498 
13:10	35.2	35.2	35.2	42	14.4	1	4	248	0.00	30.498 
13:15	35.6	35.6	35.6	43	15.3	1	6	248	0.00	30.487 
13:20	35.5	35.5	35.5	41	14.2	2	6	248	0.00	30.487 
13:25	35.5	35.5	35.5	42	14.7	1	5	248	0.00	30.487 
13:30	35.6	35.6	35.6	43	15.3	1	6	248	0.00	30.485 
13:35	35.8	35.8	35.8	43	15.5	1	7	248	0.00	30.485 
13:40	36.0	36.0	36.0	42	15.2	1	5	248	0.00	30.485 
13:45	36.2	36.2	36.2	40	14.2	2	5	248	0.00	30.478 
13:50	36.3	36.3	36.3	39	13.7	1	7	270	0.00	30.478 
13:55	36.6	36.6	36.6	43	16.2	1	3	270	0.00	30.478 
14:00	36.9	36.9	36.9	43	16.5	1	5	270	0.00	30.470 
14:05	36.9	36.9	36.9	43	16.5	2	5	248	0.00	30.470 
14:10	36.9	36.9	36.9	43	16.5	1	5	248	0.00	30.470 
14:15	36.9	36.9	36.9	43	16.5	1	10	248	0.00	30.467 
14:20	36.9	36.9	36.9	42	16.0	1	4	248	0.00	30.467 
14:25	36.9	36.9	36.9	41	15.4	2	6	248	0.00	30.467 
14:30	36.9	36.9	36.9	43	16.5	1	4	248	0.00	30.454 
14:35	36.9	36.9	36.9	41	15.4	2	7	248	0.00	30.454 
14:40	36.9	36.9	36.9	40	14.9	1	6	248	0.00	30.454 
14:45	37.2	37.2	37.2	42	16.2	1	4	248	0.00	30.446 
14:50	37.2	37.2	37.2	39	14.6	1	6	248	0.00	30.446 
14:55	37.3	37.3	37.3	40	15.2	1	5	248	0.00	30.446 
15:00	37.3	37.3	37.3	41	15.8	1	4	248	0.00	30.438 
15:05	37.6	37.6	37.6	41	16.1	1	4	248	0.00	30.438 
15:10	38.2	38.2	38.2	39	15.4	2	7	248	0.00	30.438 
15:15	38.2	38.2	38.2	39	15.4	2	5	248	0.00	30.434 
15:20	38.3	38.3	38.3	38	14.9	2	7	248	0.00	30.434 
15:25	38.3	38.3	38.3	39	15.5	1	5	248	0.00	30.434 
15:30	38.3	38.3	38.3	39	15.5	2	4	248	0.00	30.432 
15:35	38.0	38.0	38.0	40	15.8	1	4	248	0.01	30.432 
15:40	37.9	37.9	37.9	41	16.3	2	7	248	0.00	30.432 
15:45	37.6	37.6	37.6	41	16.1	2	6	248	0.00	30.424 
15:50	37.6	37.6	37.6	41	16.1	1	4	248	0.00	30.424 
15:55	37.6	37.6	37.6	42	16.6	1	5	248	0.00	30.424 
16:00	37.5	37.5	37.5	42	16.5	2	5	248	0.00	30.423 
16:05	37.3	37.3	37.3	43	16.9	1	5	248	0.00	30.423 
16:10	37.2	37.2	37.2	43	16.8	1	4	248	0.00	30.423 
16:15	37.2	37.2	37.2	45	17.8	1	4	248	0.00	30.417 
16:20	37.2	37.2	37.2	44	17.3	1	6	248	0.00	30.417 
16:25	37.2	37.2	37.2	45	17.8	1	4	248	0.00	30.417 
16:30	37.0	37.0	37.0	46	18.2	1	5	248	0.00	30.408 
16:35	36.9	36.9	36.9	44	17.0	2	6	248	0.00	30.408 
16:40	36.8	36.8	36.8	44	17.0	2	6	248	0.00	30.408 
16:45	36.8	36.8	36.8	44	17.0	1	6	248	0.00	30.406 
16:50	36.6	36.6	36.6	44	16.8	1	6	248	0.00	30.406 
16:55	36.5	36.5	36.5	43	16.2	2	9	248	0.00	30.406 
17:00	36.3	36.3	36.3	44	16.5	2	10	248	0.00	30.407 
17:05	36.2	36.2	36.2	44	16.4	1	7	248	0.00	30.407 
17:10	36.0	36.0	36.0	45	16.7	1	5	248	0.00	30.407 
17:15	35.9	35.9	35.9	46	17.2	1	5	248	0.00	30.399 
17:20	35.8	35.8	35.8	47	17.6	1	6	270	0.00	30.399 
17:25	35.6	35.6	35.6	47	17.4	1	4	248	0.00	30.399 
17:30	35.5	35.5	35.5	48	17.8	0	2	248	0.00	30.396 
17:35	35.3	35.3	35.3	48	17.6	1	5	248	0.00	30.396 
17:40	35.3	35.3	35.3	48	17.6	1	5	248	0.00	30.396 
17:45	35.2	35.2	35.2	48	17.5	1	4	248	0.00	30.398 
17:50	35.0	35.0	35.0	48	17.3	0	3	248	0.00	30.398 
17:55	35.0	35.0	35.0	49	17.8	1	2	248	0.00	30.398 
18:00	34.9	34.9	34.9	49	17.7	0	2	248	0.00	30.395 
18:05	34.9	34.9	34.9	49	17.7	1	4	248	0.00	30.395 
18:10	34.9	34.9	34.9	49	17.7	1	5	248	0.00	30.395 
18:15	34.7	34.7	34.7	49	17.5	0	2	248	0.00	30.394 
18:20	34.7	34.7	34.7	49	17.5	1	5	248	0.00	30.394 
18:25	34.7	34.7	34.7	50	18.0	1	5	248	0.00	30.394 
18:30	34.6	34.6	34.6	50	17.9	0	3	248	0.00	30.385 
18:35	34.4	34.4	34.4	51	18.2	0	4	248	0.00	30.385 
18:40	34.3	34.3	34.3	51	18.1	0	3	248	0.00	30.385 
18:45	34.3	34.3	34.3	52	18.5	1	4	248	0.00	30.377 
18:50	34.3	34.3	34.3	51	18.1	1	4	248	0.00	30.377 
18:55	34.1	34.1	34.1	51	17.9	1	4	248	0.00	30.377 
19:00	34.1	34.1	34.1	52	18.3	0	2	248	0.00	30.372 
19:05	34.0	34.0	34.0	53	18.7	1	3	248	0.00	30.372 
19:10	33.8	33.8	33.8	53	18.5	0	3	248	0.00	30.372 
19:15	33.7	33.7	33.7	54	18.8	0	2	248	0.00	30.365 
19:20	33.5	33.5	33.5	54	18.7	0	6	248	0.00	30.365 
19:25	33.4	33.4	33.4	54	18.6	0	2	248	0.00	30.365 
19:30	33.4	33.4	33.4	54	18.6	1	5	248	0.00	30.364 
19:35	33.4	33.4	33.4	54	18.6	1	4	248	0.00	30.364 
19:40	33.2	33.2	33.2	54	18.4	1	4	248	0.00	30.364 
19:45	33.2	33.2	33.2	54	18.4	1	3	248	0.00	30.356 
19:50	33.1	33.1	33.1	54	18.3	1	5	248	0.00	30.356 
19:55	32.9	32.9	32.9	55	18.5	0	3	248	0.00	30.356 
20:00	32.9	32.9	32.9	54	18.1	0	3	248	0.00	30.356 
20:05	32.8	32.8	32.8	55	18.4	0	3	248	0.00	30.356 
20:10	32.7	32.7	32.7	54	17.9	0	4	248	0.00	30.356 
20:15	32.7	32.7	32.7	54	17.9	0	2	248	0.00	30.349 
20:20	32.5	32.5	32.5	54	17.7	0	2	248	0.00	30.349 
20:25	32.5	32.5	32.5	54	17.7	0	2	248	0.00	30.349 
20:30	32.4	32.4	32.4	54	17.6	1	4	248	0.00	30.348 
20:35	32.4	32.4	32.4	54	17.6	1	4	248	0.00	30.348 
20:40	32.4	32.4	32.4	55	18.1	0	3	248	0.00	30.348 
20:45	32.2	32.2	32.2	55	17.9	0	3	248	0.00	30.346 
20:50	32.1	32.1	32.1	55	17.8	0	2	248	0.00	30.346 
20:55	32.1	32.1	32.1	55	17.8	0	2	248	0.00	30.346 
21:00	31.9	31.9	31.9	56	18.0	0	2	248	0.00	30.343 
21:05	31.9	31.9	31.9	56	18.0	0	2	248	0.00	30.343 
21:10	31.8	31.8	31.8	56	17.9	1	4	248	0.00	30.343 
21:15	31.8	31.8	31.8	56	17.9	1	5	68	0.00	30.334 
21:20	31.8	31.8	31.8	56	17.9	1	4	270	0.00	30.334 
21:25	31.8	31.8	31.8	56	17.9	1	3	248	0.00	30.334 
21:30	31.8	31.8	31.8	56	17.9	1	4	248	0.00	30.330 
21:35	31.8	31.8	31.8	56	17.9	0	4	248	0.00	30.330 
21:40	31.6	31.6	31.6	56	17.7	1	3	248	0.00	30.330 
21:45	31.6	31.6	31.6	56	17.7	1	3	248	0.00	30.329 
21:50	31.8	31.8	31.8	55	17.5	1	4	248	0.00	30.329 
21:55	31.8	31.8	31.8	55	17.5	0	5	248	0.00	30.329 
22:00	31.8	31.8	31.8	55	17.5	1	4	248	0.00	30.324 
22:05	31.9	31.9	31.9	54	17.2	2	4	248	0.00	30.324 
22:10	31.9	31.9	31.9	55	17.6	1	6	270	0.00	30.324 
22:15	31.8	31.8	31.8	55	17.5	1	10	248	0.00	30.313 
22:20	31.8	31.8	31.8	54	17.1	1	4	225	0.00	30.313 
22:25	31.8	31.8	31.8	54	17.1	1	6	248	0.00	30.313 
22:30	31.8	31.8	31.8	54	17.1	1	5	248	0.00	30.307 
22:35	31.8	31.8	31.8	54	17.1	1	4	248	0.00	30.307 
22:40	31.6	31.6	31.6	54	16.9	1	3	248	0.00	30.307 
22:45	31.6	31.6	31.6	54	16.9	1	5	248	0.00	30.297 
22:50	31.6	31.6	31.6	54	16.9	1	5	248	0.00	30.297 
22:55	31.6	31.6	31.6	54	16.9	1	4	248	0.00	30.297 
23:00	31.5	31.5	31.5	55	17.2	1	3	248	0.00	30.295 
23:05	31.5	31.5	31.5	55	17.2	1	4	248	0.00	30.295 
23:10	31.5	31.5	31.5	55	17.2	1	4	248	0.00	30.295 
23:15	31.5	31.5	31.5	55	17.2	1	5	270	0.00	30.291 
23:20	31.5	31.5	31.5	55	17.2	1	5	248	0.00	30.291 
23:25	31.5	31.5	31.5	55	17.2	2	12	248	0.00	30.291 
23:30	31.6	31.6	31.6	55	17.3	2	7	248	0.00	30.286 
23:35	31.8	31.8	31.8	54	17.1	2	9	248	0.00	30.286 
23:40	31.8	31.8	31.8	54	17.1	2	7	248	0.00	30.286 
23:45	31.6	31.6	31.6	55	17.3	1	4	248	0.00	30.279 
23:50	31.6	31.6	31.6	55	17.3	2	11	248	0.00	30.279 
23:55	31.8	31.8	31.8	54	17.1	3	7	248	0.00	30.279 

CoCoRaHS
IN-AL-39
A2 Web Hosting
Creative Commons License
GoDaddy
search engine by freefind advanced

loaded 2018-11-12 15:39:33 • last modified 2010-11-18 10:43:29
Privacy PolicyDisclaimer
• wx.awcolley.com is powered by PmWiki v.2002016 •
• all content (unless otherwise noted) © 2018 A W Colley